Time;durP1;ratioP1;P1;durP2;ratioP2;P2;SDS_P1;SDS_P2;PMS_P1;PMS_P2;Temp;Humidity;BMP_temperature;BMP_pressure;BME280_temperature;BME280_humidity;BME280_pressure;Samples;Min_cycle;Max_cycle;Signal;HPM_P1;HPM_P2
2023/10/21 00:01:28;;;;;;;10.30;4.50;;;;;;;21.57;55.45;99498.21;109952;1281;22024;-61
2023/10/21 00:03:53;;;;;;;10.90;4.20;;;;;;;21.56;55.47;99493.34;109957;1273;21832;-70
2023/10/21 00:06:19;;;;;;;11.90;5.50;;;;;;;21.56;55.27;99496.39;109956;1282;21999;-69
2023/10/21 00:08:45;;;;;;;9.10;4.20;;;;;;;21.56;55.20;99492.80;109957;1279;21919;-70
2023/10/21 00:11:12;;;;;;;13.80;5.20;;;;;;;21.57;55.31;99490.94;109966;1279;22007;-59
2023/10/21 00:13:38;;;;;;;10.00;4.40;;;;;;;21.57;55.19;99494.66;109948;1276;21924;-59
2023/10/21 00:16:04;;;;;;;8.80;4.20;;;;;;;21.59;55.07;99497.23;109975;1283;21965;-59
2023/10/21 00:18:30;;;;;;;13.00;4.30;;;;;;;21.59;54.85;99503.83;109947;1279;21849;-59
2023/10/21 00:20:55;;;;;;;10.60;4.70;;;;;;;21.59;54.84;99501.49;109958;1286;21905;-59
2023/10/21 00:23:21;;;;;;;14.60;4.50;;;;;;;21.60;54.70;99501.96;109960;1286;21911;-59
2023/10/21 00:25:47;;;;;;;10.10;4.40;;;;;;;21.62;54.53;99499.33;109961;1280;21965;-69
2023/10/21 00:28:13;;;;;;;11.10;3.90;;;;;;;21.65;54.35;99495.58;109951;1279;21990;-59
2023/10/21 00:30:38;;;;;;;9.00;3.80;;;;;;;21.67;54.20;99494.33;109962;1286;21929;-70
2023/10/21 00:33:04;;;;;;;12.70;4.00;;;;;;;21.70;54.14;99491.83;109946;1279;21944;-69
2023/10/21 00:35:31;;;;;;;9.90;3.40;;;;;;;21.73;54.10;99486.44;109918;1278;21936;-69
2023/10/21 00:37:57;;;;;;;10.80;3.70;;;;;;;21.76;53.91;99486.34;109977;1283;21978;-69
2023/10/21 00:40:23;;;;;;;13.50;4.10;;;;;;;21.80;53.74;99484.25;109927;1279;21942;-69
2023/10/21 00:42:48;;;;;;;12.50;4.20;;;;;;;21.83;53.56;99483.70;109962;1283;21976;-59
2023/10/21 00:45:14;;;;;;;11.60;3.80;;;;;;;21.86;53.49;99480.82;109965;1279;21952;-59
2023/10/21 00:47:40;;;;;;;9.60;4.30;;;;;;;21.87;53.22;99481.28;109954;1279;21912;-69
2023/10/21 00:50:06;;;;;;;11.60;4.20;;;;;;;21.88;53.09;99481.21;109958;1279;21986;-70
2023/10/21 00:52:35;;;;;;;9.40;3.60;;;;;;;21.88;53.03;99480.67;109920;1286;21907;-59
2023/10/21 00:55:00;;;;;;;11.90;4.00;;;;;;;21.87;52.81;99473.08;109984;1286;21934;-59
2023/10/21 00:57:26;;;;;;;10.60;4.10;;;;;;;21.86;52.87;99471.39;109850;1282;21850;-69
2023/10/21 00:59:52;;;;;;;10.10;3.70;;;;;;;21.85;52.81;99472.69;109848;1286;21935;-69
2023/10/21 01:02:19;;;;;;;11.40;4.50;;;;;;;21.85;52.71;99476.27;109952;1276;21970;-59
2023/10/21 01:04:44;;;;;;;9.70;4.40;;;;;;;21.87;52.61;99477.73;109907;1276;21944;-59
2023/10/21 01:07:16;;;;;;;9.80;4.90;;;;;;;21.88;52.48;99479.63;109961;1286;21831;-59
2023/10/21 01:09:42;;;;;;;7.50;3.50;;;;;;;21.86;52.53;99478.11;109943;1286;22015;-59
2023/10/21 01:12:08;;;;;;;10.20;4.00;;;;;;;21.85;52.34;99478.40;109949;1280;21885;-69
2023/10/21 01:14:34;;;;;;;11.10;4.00;;;;;;;21.84;52.18;99477.55;109949;1279;22437;-69
2023/10/21 01:16:59;;;;;;;8.00;3.60;;;;;;;21.85;52.25;99480.02;109953;1286;21972;-60
2023/10/21 01:19:25;;;;;;;10.60;4.10;;;;;;;21.86;52.24;99484.91;109942;1273;21854;-59
2023/10/21 01:21:51;;;;;;;13.90;4.70;;;;;;;21.88;52.06;99486.40;109939;1286;21892;-60
2023/10/21 01:24:17;;;;;;;11.00;4.10;;;;;;;21.88;51.99;99488.52;109954;1279;21879;-59
2023/10/21 01:26:42;;;;;;;13.60;5.00;;;;;;;21.89;51.93;99491.52;109961;1283;22030;-60
2023/10/21 01:29:09;;;;;;;17.80;4.90;;;;;;;21.89;51.92;99491.10;109960;1283;21989;-69
2023/10/21 01:31:35;;;;;;;8.80;4.50;;;;;;;21.90;51.86;99493.74;109953;1279;21934;-60
2023/10/21 01:34:01;;;;;;;9.60;5.30;;;;;;;21.89;51.73;99488.84;109962;1279;22097;-59
2023/10/21 01:36:27;;;;;;;12.00;5.50;;;;;;;21.88;51.65;99491.95;109968;1286;21913;-59
2023/10/21 01:38:53;;;;;;;9.10;4.50;;;;;;;21.87;51.54;99489.83;109947;1279;21883;-59
2023/10/21 01:41:18;;;;;;;15.60;5.80;;;;;;;21.89;51.58;99491.52;109952;1279;21869;-69
2023/10/21 01:43:44;;;;;;;10.60;5.20;;;;;;;21.91;51.55;99495.48;109952;1284;21939;-69
2023/10/21 01:46:10;;;;;;;15.10;6.50;;;;;;;21.91;51.57;99495.06;109965;1279;21862;-59
2023/10/21 01:48:36;;;;;;;11.30;4.40;;;;;;;21.92;51.39;99498.21;109919;1285;21963;-59
2023/10/21 01:51:04;;;;;;;11.70;5.50;;;;;;;21.92;51.37;99497.14;109921;1281;22472;-59
2023/10/21 01:53:34;;;;;;;13.80;4.90;;;;;;;21.93;51.40;99501.89;109934;1276;21950;-70
2023/10/21 01:56:00;;;;;;;8.70;4.20;;;;;;;21.95;51.29;99499.11;109934;1283;21951;-59
2023/10/21 01:58:28;;;;;;;10.40;4.10;;;;;;;21.96;51.03;99498.68;109932;1286;21972;-59
2023/10/21 02:00:53;;;;;;;15.10;4.70;;;;;;;21.97;51.05;99495.55;109921;1276;21944;-59
2023/10/21 02:03:19;;;;;;;12.90;4.40;;;;;;;21.98;51.01;99500.10;109913;1279;21953;-59
2023/10/21 02:05:45;;;;;;;20.60;9.50;;;;;;;21.97;51.02;99500.54;109913;1286;22002;-69
2023/10/21 02:08:10;;;;;;;19.20;8.90;;;;;;;21.97;50.96;99501.11;109907;1280;21965;-69
2023/10/21 02:10:39;;;;;;;15.30;7.00;;;;;;;21.96;50.88;99509.20;109936;1286;22386;-59
2023/10/21 02:13:04;;;;;;;17.20;7.30;;;;;;;21.95;50.79;99510.18;109923;1276;21960;-59
2023/10/21 02:15:30;;;;;;;9.80;5.20;;;;;;;21.93;50.83;99510.52;109854;1286;21959;-69
2023/10/21 02:17:55;;;;;;;14.70;5.40;;;;;;;21.91;50.80;99511.70;109951;1284;21955;-69
2023/10/21 02:20:21;;;;;;;13.70;4.90;;;;;;;21.91;50.77;99512.45;109939;1286;21931;-69
2023/10/21 02:22:46;;;;;;;14.30;5.10;;;;;;;21.90;50.64;99514.60;109940;1279;21932;-59
2023/10/21 02:25:13;;;;;;;18.50;5.50;;;;;;;21.89;50.59;99513.63;109949;1279;21953;-59
2023/10/21 02:27:40;;;;;;;14.10;4.90;;;;;;;21.87;50.44;99512.16;109941;1279;21870;-69
2023/10/21 02:30:12;;;;;;;8.10;3.90;;;;;;;21.86;50.47;99509.40;109951;1273;21975;-59
2023/10/21 02:32:38;;;;;;;17.20;3.60;;;;;;;21.84;50.47;99517.41;110084;1279;22233;-69
2023/10/21 02:35:04;;;;;;;12.50;4.60;;;;;;;21.82;50.37;99520.05;110015;1283;21948;-69
2023/10/21 02:37:30;;;;;;;9.10;3.70;;;;;;;21.79;50.32;99524.92;110073;1279;21890;-59
2023/10/21 02:39:56;;;;;;;11.30;3.60;;;;;;;21.75;50.36;99524.48;110090;1279;22276;-67
2023/10/21 02:42:21;;;;;;;11.20;3.30;;;;;;;21.73;50.14;99521.91;109983;1283;22007;-69
2023/10/21 02:44:51;;;;;;;14.20;5.00;;;;;;;21.75;50.13;99518.79;109953;1279;21944;-59
2023/10/21 02:47:16;;;;;;;10.40;4.00;;;;;;;21.75;50.23;99518.91;109954;1286;21922;-70
2023/10/21 02:49:42;;;;;;;10.80;4.00;;;;;;;21.75;50.09;99517.17;109977;1283;21940;-66
2023/10/21 02:52:08;;;;;;;17.90;5.10;;;;;;;21.74;50.09;99518.65;109977;1286;21924;-66
2023/10/21 02:54:33;;;;;;;10.90;3.80;;;;;;;21.73;49.95;99520.13;109974;1277;21923;-69
2023/10/21 02:56:59;;;;;;;9.80;3.40;;;;;;;21.72;49.89;99523.42;109949;1284;22017;-69
2023/10/21 02:59:24;;;;;;;11.80;3.30;;;;;;;21.72;49.88;99522.20;109975;1283;21923;-69
2023/10/21 03:01:50;;;;;;;10.70;3.30;;;;;;;21.71;49.73;99520.88;109988;1273;22074;-58
2023/10/21 03:04:16;;;;;;;12.60;3.40;;;;;;;21.68;49.72;99524.05;109978;1279;22205;-59
2023/10/21 03:06:41;;;;;;;10.20;3.80;;;;;;;21.65;49.55;99528.17;109972;1286;21838;-61
2023/10/21 03:09:07;;;;;;;11.80;3.30;;;;;;;21.65;49.58;99529.11;109958;1279;21959;-59
2023/10/21 03:11:32;;;;;;;13.70;4.00;;;;;;;21.66;49.54;99530.80;109957;1283;21860;-69
2023/10/21 03:13:58;;;;;;;9.90;3.80;;;;;;;21.67;49.45;99529.65;109944;1286;21939;-59
2023/10/21 03:16:23;;;;;;;12.80;3.70;;;;;;;21.67;49.43;99532.32;109970;1275;21925;-59
2023/10/21 03:18:49;;;;;;;10.30;3.40;;;;;;;21.66;49.37;99532.08;109963;1286;21921;-70
2023/10/21 03:21:15;;;;;;;11.30;3.60;;;;;;;21.64;49.41;99535.09;109970;1284;21935;-70
2023/10/21 03:23:40;;;;;;;8.90;3.70;;;;;;;21.60;49.31;99534.60;109965;1279;21922;-69
2023/10/21 03:26:09;;;;;;;10.70;3.60;;;;;;;21.58;49.26;99532.63;109979;1279;21869;-59
2023/10/21 03:28:38;;;;;;;8.90;3.40;;;;;;;21.57;49.19;99528.25;109957;1286;21861;-58
2023/10/21 03:31:04;;;;;;;12.80;3.50;;;;;;;21.54;49.18;99527.17;109974;1286;21956;-69
2023/10/21 03:33:30;;;;;;;10.50;3.50;;;;;;;21.50;49.07;99529.27;109961;1284;21900;-66
2023/10/21 03:35:57;;;;;;;11.10;3.40;;;;;;;21.45;48.99;99533.87;109910;1283;21928;-59
2023/10/21 03:38:22;;;;;;;14.20;4.40;;;;;;;21.40;49.02;99535.89;109971;1279;21909;-69
2023/10/21 03:41:08;;;;;;;9.60;3.50;;;;;;;21.35;48.88;99534.39;109950;1284;21961;-68
2023/10/21 03:43:34;;;;;;;12.30;4.00;;;;;;;21.33;49.04;99528.35;109949;1286;21921;-60
2023/10/21 03:46:07;;;;;;;13.90;4.00;;;;;;;21.31;49.10;99524.02;109936;1279;21947;-60
2023/10/21 03:48:33;;;;;;;9.80;4.10;;;;;;;21.31;49.28;99523.08;109973;1273;21914;-68
2023/10/21 03:51:09;;;;;;;11.10;3.60;;;;;;;21.32;49.30;99527.86;109916;1283;22265;-68
2023/10/21 03:53:35;;;;;;;10.80;3.70;;;;;;;21.34;49.18;99528.25;109957;1283;21918;-59
2023/10/21 03:56:01;;;;;;;9.70;3.80;;;;;;;21.36;49.13;99527.77;109939;1284;21857;-67
2023/10/21 03:58:27;;;;;;;14.70;4.90;;;;;;;21.38;49.16;99526.38;109951;1284;21920;-59
2023/10/21 04:00:54;;;;;;;15.10;4.00;;;;;;;21.39;49.04;99530.19;109938;1279;22017;-59
2023/10/21 04:03:20;;;;;;;15.10;4.10;;;;;;;21.41;49.08;99532.58;109944;1279;21951;-60
2023/10/21 04:05:46;;;;;;;13.80;4.00;;;;;;;21.42;49.14;99539.44;109969;1277;21950;-68
2023/10/21 04:08:11;;;;;;;12.60;4.10;;;;;;;21.44;48.93;99542.73;109955;1283;21954;-59
2023/10/21 04:10:37;;;;;;;14.50;4.00;;;;;;;21.43;48.75;99543.31;109957;1286;21902;-60
2023/10/21 04:13:03;;;;;;;10.40;3.50;;;;;;;21.41;48.71;99544.70;109954;1279;21954;-67
2023/10/21 04:15:29;;;;;;;15.60;4.60;;;;;;;21.39;48.68;99547.38;109957;1279;21940;-59
2023/10/21 04:17:55;;;;;;;10.80;3.20;;;;;;;21.33;48.58;99558.27;109954;1273;21967;-68
2023/10/21 04:20:21;;;;;;;11.60;3.60;;;;;;;21.28;48.46;99560.26;109961;1286;21995;-59
2023/10/21 04:22:47;;;;;;;16.70;3.90;;;;;;;21.23;48.57;99564.10;109959;1283;21956;-60
2023/10/21 04:25:13;;;;;;;19.10;4.30;;;;;;;21.22;48.52;99563.50;109966;1279;21880;-60
2023/10/21 04:27:38;;;;;;;13.00;3.70;;;;;;;21.20;48.53;99559.73;109947;1277;21907;-60
2023/10/21 04:30:05;;;;;;;15.00;3.50;;;;;;;21.18;48.49;99560.43;109949;1286;21892;-60
2023/10/21 04:32:31;;;;;;;11.10;3.60;;;;;;;21.16;48.50;99565.39;109941;1278;21892;-68
2023/10/21 04:34:57;;;;;;;16.10;5.30;;;;;;;21.14;48.62;99565.52;109962;1278;22321;-60
2023/10/21 04:37:23;;;;;;;11.60;4.50;;;;;;;21.10;48.61;99571.27;109918;1279;22024;-59
2023/10/21 04:39:48;;;;;;;13.60;5.00;;;;;;;21.08;48.57;99571.77;109936;1286;21936;-68
2023/10/21 04:42:14;;;;;;;17.10;4.80;;;;;;;21.06;48.61;99575.48;109938;1286;21925;-60
2023/10/21 04:44:40;;;;;;;16.90;4.60;;;;;;;21.06;48.59;99578.38;109955;1286;21937;-60
2023/10/21 04:47:05;;;;;;;16.50;4.90;;;;;;;21.07;48.59;99581.83;109956;1286;21869;-59
2023/10/21 04:49:31;;;;;;;15.30;4.80;;;;;;;21.09;48.62;99581.52;109958;1286;21937;-59
2023/10/21 04:51:57;;;;;;;14.60;5.60;;;;;;;21.10;48.60;99585.73;109974;1284;21962;-59
2023/10/21 04:54:22;;;;;;;18.00;5.20;;;;;;;21.12;48.60;99582.06;109901;1286;21876;-59
2023/10/21 04:56:48;;;;;;;13.80;5.00;;;;;;;21.14;48.64;99584.39;109984;1273;21931;-61
2023/10/21 04:59:14;;;;;;;13.50;4.40;;;;;;;21.14;48.50;99586.75;109971;1273;21951;-69
2023/10/21 05:01:40;;;;;;;11.60;4.70;;;;;;;21.14;48.43;99592.98;109953;1273;21956;-68
2023/10/21 05:04:06;;;;;;;15.00;4.60;;;;;;;21.13;48.43;99595.33;109966;1279;21958;-59
2023/10/21 05:06:31;;;;;;;14.30;5.10;;;;;;;21.15;48.32;99601.14;109957;1279;21907;-60
2023/10/21 05:08:58;;;;;;;11.40;4.40;;;;;;;21.13;48.34;99609.12;109963;1275;21937;-68
2023/10/21 05:11:23;;;;;;;14.30;4.90;;;;;;;21.13;48.34;99613.92;109940;1279;21865;-60
2023/10/21 05:13:49;;;;;;;16.40;4.70;;;;;;;21.13;48.43;99613.04;109915;1284;22001;-70
2023/10/21 05:16:14;;;;;;;15.60;4.00;;;;;;;21.13;48.47;99615.33;109909;1273;21936;-59
2023/10/21 05:18:40;;;;;;;12.70;4.60;;;;;;;21.15;48.49;99622.30;109929;1279;22021;-58
2023/10/21 05:21:08;;;;;;;12.90;4.50;;;;;;;21.20;48.58;99628.23;109987;1286;21954;-58
2023/10/21 05:23:34;;;;;;;10.60;3.80;;;;;;;21.25;48.50;99633.25;110040;1286;22403;-70
2023/10/21 05:26:00;;;;;;;12.50;4.20;;;;;;;21.30;48.57;99642.54;109949;1279;21913;-71
2023/10/21 05:28:26;;;;;;;15.70;3.80;;;;;;;21.34;48.55;99643.54;109953;1283;22209;-70
2023/10/21 05:30:51;;;;;;;16.60;4.30;;;;;;;21.36;48.61;99643.16;109955;1285;21871;-59
2023/10/21 05:33:17;;;;;;;11.50;4.20;;;;;;;21.41;48.65;99651.07;109965;1279;21953;-71
2023/10/21 05:35:43;;;;;;;16.80;4.20;;;;;;;21.46;48.72;99656.98;109956;1273;21931;-70
2023/10/21 05:38:08;;;;;;;17.00;3.40;;;;;;;21.51;48.85;99656.63;109953;1279;22027;-59
2023/10/21 05:40:35;;;;;;;8.90;3.60;;;;;;;21.57;48.88;99653.55;109961;1276;22000;-59
2023/10/21 05:43:01;;;;;;;13.60;3.90;;;;;;;21.64;48.84;99651.64;109957;1286;21928;-70
2023/10/21 05:45:26;;;;;;;14.30;4.00;;;;;;;21.72;49.00;99654.14;109961;1279;21940;-58
2023/10/21 05:47:53;;;;;;;11.80;3.80;;;;;;;21.80;48.97;99653.59;109970;1279;21936;-58
2023/10/21 05:50:21;;;;;;;12.60;3.70;;;;;;;21.89;48.86;99654.92;109948;1283;22253;-71
2023/10/21 05:52:47;;;;;;;12.70;4.60;;;;;;;21.99;48.86;99657.05;109959;1279;21956;-58
2023/10/21 05:55:13;;;;;;;11.10;3.70;;;;;;;22.10;48.69;99659.29;109962;1279;21917;-67
2023/10/21 05:57:39;;;;;;;13.30;3.70;;;;;;;22.20;48.74;99661.77;109945;1279;21964;-69
2023/10/21 06:00:06;;;;;;;16.90;4.40;;;;;;;22.33;48.78;99663.73;109952;1276;21922;-70
2023/10/21 06:02:32;;;;;;;12.80;4.30;;;;;;;22.45;48.59;99665.20;109959;1279;21933;-58
2023/10/21 06:04:58;;;;;;;9.20;4.00;;;;;;;22.56;48.49;99661.71;109963;1279;21921;-59
2023/10/21 06:07:23;;;;;;;20.60;5.50;;;;;;;22.68;48.34;99660.31;109960;1273;21929;-59
2023/10/21 06:09:49;;;;;;;21.00;5.70;;;;;;;22.80;48.32;99656.34;109939;1279;22044;-59
2023/10/21 06:12:15;;;;;;;14.90;5.90;;;;;;;22.93;48.32;99656.51;109964;1286;21853;-69
2023/10/21 06:14:40;;;;;;;14.50;5.50;;;;;;;23.09;48.26;99656.02;109899;1276;22026;-59
2023/10/21 06:17:06;;;;;;;18.60;5.50;;;;;;;23.24;48.17;99654.89;109947;1286;22046;-63
2023/10/21 06:19:32;;;;;;;18.00;5.10;;;;;;;23.35;48.06;99655.13;109968;1279;22010;-71
2023/10/21 06:21:58;;;;;;;18.90;6.20;;;;;;;23.50;48.01;99658.77;109946;1276;21928;-61
2023/10/21 06:24:24;;;;;;;18.30;5.50;;;;;;;23.65;47.67;99658.84;109949;1286;21945;-71
2023/10/21 06:26:50;;;;;;;13.30;5.80;;;;;;;23.83;47.67;99663.73;109954;1286;21999;-59
2023/10/21 06:29:16;;;;;;;18.90;5.20;;;;;;;23.98;47.44;99667.21;109947;1286;21973;-58
2023/10/21 06:31:42;;;;;;;19.40;4.90;;;;;;;24.13;47.26;99668.20;109953;1286;21980;-70
2023/10/21 06:34:08;;;;;;;10.40;4.70;;;;;;;24.27;47.20;99670.17;109959;1273;21947;-59
2023/10/21 06:36:34;;;;;;;13.70;4.80;;;;;;;24.41;46.95;99673.64;109972;1276;21913;-71
2023/10/21 06:39:00;;;;;;;17.90;4.70;;;;;;;24.55;46.89;99674.32;109956;1286;21926;-59
2023/10/21 06:41:26;;;;;;;13.90;5.70;;;;;;;24.70;46.87;99680.62;109936;1286;21938;-60
2023/10/21 06:43:51;;;;;;;14.40;5.10;;;;;;;24.86;46.70;99677.91;109970;1286;21832;-59
2023/10/21 06:46:18;;;;;;;11.90;4.40;;;;;;;25.02;46.55;99681.59;109971;1276;21937;-60
2023/10/21 06:48:44;;;;;;;22.30;5.30;;;;;;;25.20;46.58;99682.64;109984;1286;21938;-70
2023/10/21 06:51:10;;;;;;;13.00;4.90;;;;;;;25.37;46.25;99683.88;109960;1280;21980;-60
2023/10/21 06:53:35;;;;;;;16.40;6.20;;;;;;;25.55;46.13;99685.25;109962;1279;22007;-70
2023/10/21 06:56:01;;;;;;;15.00;5.70;;;;;;;25.73;45.65;99687.09;109921;1286;21946;-71
2023/10/21 06:58:27;;;;;;;19.00;6.50;;;;;;;25.94;45.34;99688.57;109947;1286;21833;-71
2023/10/21 07:00:52;;;;;;;16.70;6.90;;;;;;;26.11;45.28;99688.89;109949;1276;21943;-65
2023/10/21 07:03:18;;;;;;;18.30;7.10;;;;;;;26.28;45.37;99687.94;109953;1274;21923;-59
2023/10/21 07:05:45;;;;;;;18.00;7.40;;;;;;;26.46;44.95;99682.77;109954;1286;21897;-59
2023/10/21 07:08:11;;;;;;;22.90;7.90;;;;;;;26.62;44.63;99680.06;109974;1286;21960;-71
2023/10/21 07:10:38;;;;;;;14.30;6.90;;;;;;;26.77;44.27;99680.98;109960;1283;21880;-70
2023/10/21 07:13:04;;;;;;;18.70;6.30;;;;;;;26.95;44.31;99676.67;109944;1275;21954;-59
2023/10/21 07:15:31;;;;;;;14.80;5.80;;;;;;;27.14;43.72;99675.64;109964;1279;21927;-70
2023/10/21 07:17:57;;;;;;;18.80;5.00;;;;;;;27.36;43.39;99680.31;109946;1284;21978;-71
2023/10/21 07:20:25;;;;;;;17.70;4.90;;;;;;;27.51;43.26;99679.25;109944;1283;21932;-59
2023/10/21 07:22:51;;;;;;;18.70;5.30;;;;;;;27.57;42.92;99683.03;109959;1274;21949;-71
2023/10/21 07:25:18;;;;;;;20.40;5.50;;;;;;;27.67;43.00;99681.02;109958;1279;22480;-70
2023/10/21 07:27:44;;;;;;;20.70;4.70;;;;;;;27.83;42.70;99681.63;109951;1282;21900;-71
2023/10/21 07:30:10;;;;;;;16.70;5.50;;;;;;;28.06;42.16;99683.76;109964;1279;22173;-70
2023/10/21 07:32:36;;;;;;;11.90;5.10;;;;;;;28.24;41.99;99683.30;109956;1283;21935;-60
2023/10/21 07:35:03;;;;;;;17.10;5.20;;;;;;;28.33;41.65;99687.36;109968;1279;21898;-72
2023/10/21 07:37:30;;;;;;;16.10;4.30;;;;;;;28.34;41.61;99686.30;109971;1273;22085;-60
2023/10/21 07:39:58;;;;;;;15.40;4.90;;;;;;;28.53;41.45;99685.34;109971;1279;21909;-71
2023/10/21 07:42:24;;;;;;;15.80;5.10;;;;;;;28.62;41.25;99688.27;109957;1273;22012;-70
2023/10/21 07:44:50;;;;;;;12.40;3.70;;;;;;;28.64;41.07;99693.98;109944;1286;21952;-70
2023/10/21 07:47:16;;;;;;;12.40;3.70;;;;;;;28.76;41.10;99695.89;109969;1279;22030;-60
2023/10/21 07:49:41;;;;;;;12.60;3.70;;;;;;;28.94;40.50;99695.40;109961;1284;21868;-60
2023/10/21 07:52:07;;;;;;;9.90;4.30;;;;;;;29.11;40.25;99697.13;109956;1280;22128;-60
2023/10/21 07:54:34;;;;;;;15.60;5.00;;;;;;;29.29;40.51;99701.96;109956;1286;21919;-71
2023/10/21 07:57:00;;;;;;;13.50;4.10;;;;;;;29.45;40.15;99706.91;109966;1283;21948;-60
2023/10/21 07:59:27;;;;;;;15.30;4.80;;;;;;;29.55;39.97;99711.13;109954;1286;21937;-71
2023/10/21 08:01:54;;;;;;;20.50;4.70;;;;;;;29.64;39.67;99713.96;109968;1284;21959;-59
2023/10/21 08:04:19;;;;;;;10.70;3.60;;;;;;;29.74;39.53;99718.00;109961;1273;21838;-60
2023/10/21 08:06:46;;;;;;;13.20;3.80;;;;;;;29.87;39.15;99721.94;109943;1279;21946;-63
2023/10/21 08:09:15;;;;;;;14.40;3.90;;;;;;;30.01;39.28;99726.29;109957;1284;21789;-69
2023/10/21 08:11:42;;;;;;;12.90;4.60;;;;;;;30.15;39.15;99727.41;109985;1279;21949;-70
2023/10/21 08:14:10;;;;;;;8.80;3.70;;;;;;;30.29;39.10;99726.08;109947;1284;21965;-70
2023/10/21 08:16:36;;;;;;;9.40;3.80;;;;;;;30.44;38.50;99727.25;109955;1284;21932;-60
2023/10/21 08:19:03;;;;;;;15.50;4.20;;;;;;;30.55;38.00;99732.19;109945;1279;21978;-60
2023/10/21 08:21:28;;;;;;;13.80;4.40;;;;;;;30.69;38.15;99732.20;109943;1286;21908;-60
2023/10/21 08:23:54;;;;;;;17.50;4.20;;;;;;;30.83;37.80;99734.64;109903;1286;22349;-59
2023/10/21 08:26:20;;;;;;;9.90;3.50;;;;;;;30.98;37.91;99730.55;109947;1286;21930;-60
2023/10/21 08:28:45;;;;;;;13.60;3.70;;;;;;;31.11;37.64;99734.04;109950;1275;21934;-71
2023/10/21 08:31:11;;;;;;;14.10;4.10;;;;;;;31.24;37.46;99733.51;109950;1282;22020;-71
2023/10/21 08:33:36;;;;;;;14.20;3.80;;;;;;;31.37;37.15;99734.98;109931;1276;21941;-60
2023/10/21 08:36:02;;;;;;;14.20;3.80;;;;;;;31.45;37.19;99733.96;109944;1279;21891;-60
2023/10/21 08:38:28;;;;;;;16.60;4.30;;;;;;;31.52;36.63;99732.09;109954;1283;21911;-70
2023/10/21 08:40:54;;;;;;;10.90;3.70;;;;;;;31.67;36.91;99732.98;109959;1286;21924;-60
2023/10/21 08:43:21;;;;;;;16.50;4.10;;;;;;;31.76;36.58;99735.98;109963;1279;21924;-71
2023/10/21 08:45:47;;;;;;;19.10;4.20;;;;;;;31.89;36.74;99737.73;109860;1286;22057;-70
2023/10/21 08:48:13;;;;;;;12.70;4.30;;;;;;;32.02;36.58;99735.29;109906;1286;21965;-60
2023/10/21 08:50:39;;;;;;;29.00;8.80;;;;;;;32.06;36.38;99734.66;109887;1276;21951;-70
2023/10/21 08:53:05;;;;;;;13.00;4.80;;;;;;;32.18;36.32;99731.45;109957;1284;21933;-60
2023/10/21 08:55:35;;;;;;;16.70;4.80;;;;;;;32.38;36.38;99736.85;109964;1279;21938;-61
2023/10/21 08:58:01;;;;;;;;;;;;;;;32.55;36.20;99734.02;109935;1275;21925;-80
2023/10/21 09:00:27;;;;;;;13.70;4.00;;;;;;;32.76;35.62;99738.05;109960;1273;21931;-81
2023/10/21 09:02:52;;;;;;;9.40;3.50;;;;;;;32.97;35.25;99740.59;109961;1273;22002;-72
2023/10/21 09:05:18;;;;;;;18.70;4.30;;;;;;;33.22;35.27;99741.98;109953;1283;21932;-69
2023/10/21 09:07:45;;;;;;;13.10;4.00;;;;;;;33.43;35.01;99739.13;109948;1286;21936;-59
2023/10/21 09:10:12;;;;;;;12.20;3.40;;;;;;;33.60;34.62;99730.58;109963;1279;21935;-75
2023/10/21 09:12:38;;;;;;;11.20;3.50;;;;;;;33.74;34.50;99730.34;109914;1276;22409;-60
2023/10/21 09:15:05;;;;;;;14.90;3.90;;;;;;;33.95;34.06;99728.98;109944;1279;21961;-72
2023/10/21 09:17:38;;;;;;;16.00;4.80;;;;;;;34.11;34.13;99726.36;109953;1284;22366;-71
2023/10/21 09:20:15;;;;;;;18.00;4.00;;;;;;;34.27;33.72;99726.02;109956;1286;22692;-72
2023/10/21 09:22:41;;;;;;;11.90;3.70;;;;;;;34.35;33.31;99728.30;109942;1279;21958;-73
2023/10/21 09:25:15;;;;;;;13.00;4.10;;;;;;;34.35;33.57;99729.49;109939;1279;22275;-73
2023/10/21 09:27:42;;;;;;;24.40;5.90;;;;;;;34.40;33.54;99732.55;109963;1284;22353;-72
2023/10/21 09:30:13;;;;;;;13.00;4.60;;;;;;;34.34;33.42;99727.49;109934;1286;21935;-69
2023/10/21 09:32:41;;;;;;;15.30;4.80;;;;;;;34.40;32.68;99725.39;109948;1275;22020;-70
2023/10/21 09:35:25;;;;;;;10.20;4.30;;;;;;;34.40;32.95;99726.53;109945;1279;21981;-69
2023/10/21 09:37:51;;;;;;;15.30;4.70;;;;;;;34.48;33.18;99727.40;109940;1283;21985;-69
2023/10/21 09:40:17;;;;;;;33.80;5.50;;;;;;;34.64;33.02;99731.45;109921;1282;21978;-59
2023/10/21 09:42:43;;;;;;;21.90;5.40;;;;;;;34.81;32.94;99733.53;109932;1276;21959;-60
2023/10/21 09:45:10;;;;;;;16.60;4.60;;;;;;;35.03;32.91;99732.86;109916;1280;21966;-60
2023/10/21 09:47:42;;;;;;;16.50;4.50;;;;;;;35.21;32.43;99728.06;109918;1286;21939;-72
2023/10/21 09:50:13;;;;;;;16.40;4.90;;;;;;;35.44;32.07;99727.34;109892;1280;21855;-72
2023/10/21 09:52:54;;;;;;;16.30;4.60;;;;;;;35.56;31.88;99725.94;109930;1281;21962;-60
2023/10/21 09:55:24;;;;;;;12.90;4.10;;;;;;;35.65;31.64;99727.23;109926;1276;21933;-71
2023/10/21 09:57:54;;;;;;;11.70;4.00;;;;;;;35.65;31.39;99727.20;109926;1285;21975;-71
2023/10/21 10:00:20;;;;;;;15.20;4.60;;;;;;;35.59;30.92;99727.43;109929;1279;21984;-60
2023/10/21 10:02:48;;;;;;;13.80;4.10;;;;;;;35.52;30.59;99729.11;109946;1286;21966;-71
2023/10/21 10:05:17;;;;;;;12.90;4.30;;;;;;;35.55;30.56;99731.20;109882;1279;21961;-72
2023/10/21 10:07:44;;;;;;;11.30;3.50;;;;;;;35.68;30.74;99730.23;109930;1283;21968;-69
2023/10/21 10:10:12;;;;;;;11.90;4.50;;;;;;;35.86;30.74;99729.81;109887;1286;21946;-60
2023/10/21 10:12:49;;;;;;;14.50;5.30;;;;;;;35.88;30.35;99729.90;109923;1276;21982;-60
2023/10/21 10:15:34;;;;;;;16.70;4.70;;;;;;;35.85;30.90;99731.15;109902;1277;22164;-60
2023/10/21 10:18:13;;;;;;;15.50;4.50;;;;;;;36.00;31.00;99736.23;109922;1281;21973;-69
2023/10/21 10:20:52;;;;;;;12.30;4.20;;;;;;;36.18;30.68;99738.27;109869;1277;22192;-69
2023/10/21 10:23:18;;;;;;;16.50;4.80;;;;;;;36.28;30.41;99738.86;109931;1286;21947;-60
2023/10/21 10:25:46;;;;;;;12.50;4.70;;;;;;;36.32;30.55;99735.65;109915;1277;21956;-69
2023/10/21 10:28:17;;;;;;;15.90;4.60;;;;;;;36.41;30.38;99739.81;109924;1279;21970;-69
2023/10/21 10:30:46;;;;;;;18.10;4.80;;;;;;;36.48;30.15;99738.13;109921;1276;21995;-61
2023/10/21 10:33:15;;;;;;;12.30;4.10;;;;;;;36.53;30.19;99734.58;109924;1276;21998;-60
2023/10/21 10:35:48;;;;;;;17.70;5.50;;;;;;;36.65;30.01;99736.33;109924;1274;21959;-60
2023/10/21 10:38:20;;;;;;;11.20;3.90;;;;;;;36.69;29.75;99736.44;109872;1286;22178;-60
2023/10/21 10:40:46;;;;;;;16.80;5.20;;;;;;;36.68;28.84;99736.26;109903;1286;22004;-70
2023/10/21 10:43:12;;;;;;;15.50;4.80;;;;;;;36.68;29.12;99734.75;109928;1279;21945;-70
2023/10/21 10:45:38;;;;;;;10.60;4.00;;;;;;;36.68;29.31;99733.86;109921;1283;21879;-61
2023/10/21 10:48:07;;;;;;;16.30;4.30;;;;;;;36.72;29.05;99732.27;109920;1274;21967;-70
2023/10/21 10:50:37;;;;;;;14.40;5.10;;;;;;;36.78;28.61;99734.65;109936;1284;21967;-60
2023/10/21 10:53:13;;;;;;;16.40;4.70;;;;;;;36.76;28.98;99733.46;109941;1283;21952;-70
2023/10/21 10:55:44;;;;;;;15.30;5.20;;;;;;;36.76;28.97;99738.02;109927;1281;22037;-60
2023/10/21 10:58:11;;;;;;;12.20;4.90;;;;;;;36.77;28.76;99733.92;109873;1277;21957;-60
2023/10/21 11:00:39;;;;;;;10.40;4.30;;;;;;;36.82;28.86;99732.50;109928;1286;21927;-70
2023/10/21 11:03:06;;;;;;;14.90;4.50;;;;;;;36.90;28.71;99731.13;109921;1286;21922;-70
2023/10/21 11:05:32;;;;;;;15.20;6.00;;;;;;;36.99;28.93;99729.31;109895;1285;22387;-70
2023/10/21 11:07:58;;;;;;;14.90;4.80;;;;;;;37.12;28.63;99729.92;109936;1275;21980;-60
2023/10/21 11:10:25;;;;;;;13.70;5.00;;;;;;;37.26;28.54;99731.24;109903;1284;21959;-70
2023/10/21 11:12:51;;;;;;;19.70;4.90;;;;;;;37.34;28.27;99731.25;109921;1279;21997;-60
2023/10/21 11:15:17;;;;;;;15.00;5.40;;;;;;;37.41;28.09;99732.46;109921;1286;21938;-71
2023/10/21 11:17:51;;;;;;;13.30;4.30;;;;;;;37.41;27.97;99733.52;109919;1282;21958;-71